首页
METAR-TAF:

METAR-TAF

机场 :

布朗斯維爾, 得克萨斯州, 美国

纬度: 25-54-51N, 经度: 097-25-23W, 海拔: 7米

当前天气观测

该预报发布于28分钟前的23:53 UTC
风速17节,风向南转南东
温度 24°C
湿度 83%
气压 1008 hPa
能見度: 16.1公里
多云层高于1800英尺

METAR: KBRO 092353Z 16017KT 10SM BKN018 24/21 A2976 RMK AO2 PK WND 17027/2305 SLP075 T02440206 10283 20244 57001

时间: 18:21 (00:21 UTC)

预报

该预报发布于47分钟前的23:34 UTC
预报有效从10日的 00点(UTC)到 10日的 24点(UTC)
风速15节,风向,有时为22节阵风
能見度: 10公里
散云层高于3000英尺
从 10日的 0800点(UTC)
风速8节,风向
能見度: 10公里
多云层高于2500英尺
从 10日的 1500点(UTC)
风速25节,风向北转西北,有时为35节阵风
能見度: 10公里
阴天层高于2500英尺

TAF: KBRO 092334Z 1000/1024 17015G22KT P6SM SCT030 FM100800 18008KT P6SM BKN025 FM101500 33025G35KT P6SM OVC025

超过4000个机场的气象观测和天气预报(METAR&TAF报告)。

可查询的气象台以黄色和红色小点在地图上表示。

将鼠标移到小点上方,可查看气象台名称。

然后点击查看天气观测和预报。

如需切换地图:点击带黑十字的绿色按钮放大地图;点击带横线的绿色按钮缩小地图;或者点击绿色箭头查看邻近地区的地图。


METAR-TAF: